Time,TemperatureF,DewpointF,PressureIn,WindDirection,WindDirectionDegrees,WindSpeedMPH,WindSpeedGustMPH,Humidity,HourlyPrecipIn,Conditions,Clouds,dailyrainin,SoftwareType,DateUTC
2013-07-28 00:02:00,65.5,55.0,31.01,NNE,12,5.4,7.4,69,0.00,,---,0.00,VWS V14.00,2013-07-28 05:02:00,
2013-07-28 00:07:00,65.3,54.9,31.01,NNE,13,6.0,8.2,69,0.00,,---,0.00,VWS V14.00,2013-07-28 05:07:00,
2013-07-28 00:12:00,65.1,54.7,31.01,NNE,13,8.1,10.7,69,0.00,,---,0.00,VWS V14.00,2013-07-28 05:12:00,
2013-07-28 00:17:00,65.1,54.7,31.01,NNE,20,6.0,8.2,69,0.00,,---,0.00,VWS V14.00,2013-07-28 05:17:00,
2013-07-28 00:22:00,64.8,54.4,31.01,North,8,5.4,7.4,69,0.00,,---,0.00,VWS V14.00,2013-07-28 05:22:00,
2013-07-28 00:27:00,64.6,54.2,31.01,NNE,14,5.4,7.4,69,0.00,,---,0.00,VWS V14.00,2013-07-28 05:27:00,
2013-07-28 00:32:00,64.4,54.0,31.01,NNE,19,5.4,7.4,69,0.00,,---,0.00,VWS V14.00,2013-07-28 05:32:00,
2013-07-28 00:37:00,64.2,54.2,31.01,NNE,19,5.4,7.4,70,0.00,,---,0.00,VWS V14.00,2013-07-28 05:37:00,
2013-07-28 00:42:00,64.2,54.2,31.01,NNE,17,4.7,6.6,70,0.00,,---,0.00,VWS V14.00,2013-07-28 05:42:00,
2013-07-28 00:47:00,64.0,54.1,31.01,North,7,8.1,10.7,70,0.00,,---,0.00,VWS V14.00,2013-07-28 05:47:00,
2013-07-28 00:52:00,63.7,53.7,31.01,NNE,23,6.0,8.2,70,0.00,,---,0.00,VWS V14.00,2013-07-28 05:52:00,
2013-07-28 00:57:00,63.5,53.5,31.01,NNE,21,4.7,6.6,70,0.00,,---,0.00,VWS V14.00,2013-07-28 05:57:00,
2013-07-28 01:02:00,63.3,53.4,31.01,NNE,24,5.4,7.4,70,0.00,,---,0.00,VWS V14.00,2013-07-28 06:02:00,
2013-07-28 01:07:00,63.3,53.4,31.01,NE,38,0.0,5.8,70,0.00,,---,0.00,VWS V14.00,2013-07-28 06:07:00,
2013-07-28 01:12:00,63.3,53.4,31.01,East,80,4.0,5.8,70,0.00,,---,0.00,VWS V14.00,2013-07-28 06:12:00,
2013-07-28 01:17:00,63.5,53.5,31.01,ENE,77,0.0,1.0,70,0.00,,---,0.00,VWS V14.00,2013-07-28 06:17:00,
2013-07-28 01:22:00,63.3,53.0,31.01,NE,51,0.0,1.0,69,0.00,,---,0.00,VWS V14.00,2013-07-28 06:22:00,
2013-07-28 01:27:00,63.3,53.0,31.01,ENE,71,0.0,1.0,69,0.00,,---,0.00,VWS V14.00,2013-07-28 06:27:00,
2013-07-28 01:32:00,63.1,52.8,31.01,ENE,71,0.0,1.0,69,0.00,,---,0.00,VWS V14.00,2013-07-28 06:32:00,
2013-07-28 01:37:00,63.1,52.8,31.01,ENE,71,0.0,1.0,69,0.00,,---,0.00,VWS V14.00,2013-07-28 06:37:00,
2013-07-28 01:42:00,63.0,52.6,31.01,ENE,71,0.0,1.0,69,0.00,,---,0.00,VWS V14.00,2013-07-28 06:42:00,
2013-07-28 01:47:00,62.8,52.5,31.01,ENE,71,0.0,1.0,69,0.00,,---,0.00,VWS V14.00,2013-07-28 06:47:00,
2013-07-28 01:52:00,62.6,52.3,31.01,ENE,71,0.0,1.0,69,0.00,,---,0.00,VWS V14.00,2013-07-28 06:52:00,
2013-07-28 01:57:00,62.1,52.2,31.01,ENE,71,0.0,1.0,70,0.00,,---,0.00,VWS V14.00,2013-07-28 06:57:00,
2013-07-28 02:02:00,61.9,52.4,31.01,ENE,71,0.0,1.0,71,0.00,,---,0.00,VWS V14.00,2013-07-28 07:02:00,
2013-07-28 02:07:00,61.9,52.4,31.01,NE,51,3.4,5.0,71,0.00,,---,0.00,VWS V14.00,2013-07-28 07:07:00,
2013-07-28 02:12:00,62.1,52.2,31.01,ENE,76,0.0,1.0,70,0.00,,---,0.00,VWS V14.00,2013-07-28 07:12:00,
2013-07-28 02:17:00,61.9,52.0,31.01,ENE,72,0.0,1.0,70,0.00,,---,0.00,VWS V14.00,2013-07-28 07:17:00,
2013-07-28 02:22:00,61.9,52.0,31.01,NE,38,4.0,5.8,70,0.00,,---,0.00,VWS V14.00,2013-07-28 07:22:00,
2013-07-28 02:27:00,61.9,51.6,31.01,NNE,25,0.0,1.0,69,0.00,,---,0.00,VWS V14.00,2013-07-28 07:27:00,
2013-07-28 02:32:00,61.7,51.4,31.01,NE,42,0.0,1.0,69,0.00,,---,0.00,VWS V14.00,2013-07-28 07:32:00,
2013-07-28 02:37:00,61.7,51.4,31.01,NE,42,0.0,1.0,69,0.00,,---,0.00,VWS V14.00,2013-07-28 07:37:00,
2013-07-28 02:42:00,61.7,51.4,31.01,East,80,3.4,5.0,69,0.00,,---,0.00,VWS V14.00,2013-07-28 07:42:00,
2013-07-28 02:47:00,61.3,51.1,31.01,East,80,0.0,1.0,69,0.00,,---,0.00,VWS V14.00,2013-07-28 07:47:00,
2013-07-28 02:52:00,60.8,50.6,31.01,East,80,0.0,1.0,69,0.00,,---,0.00,VWS V14.00,2013-07-28 07:52:00,
2013-07-28 02:57:00,60.1,50.3,31.01,East,80,0.0,1.0,70,0.00,,---,0.00,VWS V14.00,2013-07-28 07:57:00,
2013-07-28 03:02:00,59.7,50.3,31.01,East,80,0.0,1.0,71,0.00,,---,0.00,VWS V14.00,2013-07-28 08:02:00,
2013-07-28 03:07:00,59.2,50.2,31.01,East,80,0.0,1.0,72,0.00,,---,0.00,VWS V14.00,2013-07-28 08:07:00,
2013-07-28 03:12:00,58.8,50.2,31.01,East,80,0.0,1.0,73,0.00,,---,0.00,VWS V14.00,2013-07-28 08:12:00,
2013-07-28 03:17:00,58.6,50.0,31.01,East,80,0.0,1.0,73,0.00,,---,0.00,VWS V14.00,2013-07-28 08:17:00,
2013-07-28 03:22:00,58.6,50.4,31.01,East,80,0.0,1.0,74,0.00,,---,0.00,VWS V14.00,2013-07-28 08:22:00,
2013-07-28 03:27:00,58.3,50.0,31.01,East,80,0.0,1.0,74,0.00,,---,0.00,VWS V14.00,2013-07-28 08:27:00,
2013-07-28 03:32:00,58.1,50.2,31.01,East,80,0.0,1.0,75,0.00,,---,0.00,VWS V14.00,2013-07-28 08:32:00,
2013-07-28 03:37:00,57.9,50.0,31.01,East,80,0.0,1.0,75,0.00,,---,0.00,VWS V14.00,2013-07-28 08:37:00,
2013-07-28 03:42:00,57.7,50.2,31.01,East,80,0.0,1.0,76,0.00,,---,0.00,VWS V14.00,2013-07-28 08:42:00,
2013-07-28 03:47:00,57.7,50.2,31.01,East,80,0.0,1.0,76,0.00,,---,0.00,VWS V14.00,2013-07-28 08:47:00,
2013-07-28 03:52:00,57.6,50.1,31.01,East,80,0.0,1.0,76,0.00,,---,0.00,VWS V14.00,2013-07-28 08:52:00,
2013-07-28 03:57:00,57.4,50.2,31.01,East,80,0.0,1.0,77,0.00,,---,0.00,VWS V14.00,2013-07-28 08:57:00,
2013-07-28 04:02:00,57.4,50.2,31.01,East,80,0.0,1.0,77,0.00,,---,0.00,VWS V14.00,2013-07-28 09:02:00,
2013-07-28 04:07:00,57.2,50.4,31.01,East,80,0.0,1.0,78,0.00,,---,0.00,VWS V14.00,2013-07-28 09:07:00,
2013-07-28 04:12:00,57.2,50.4,31.01,East,80,0.0,1.0,78,0.00,,---,0.00,VWS V14.00,2013-07-28 09:12:00,
2013-07-28 04:17:00,57.2,50.8,31.01,East,80,0.0,1.0,79,0.00,,---,0.00,VWS V14.00,2013-07-28 09:17:00,
2013-07-28 04:22:00,57.0,50.9,31.01,East,80,0.0,1.0,80,0.00,,---,0.00,VWS V14.00,2013-07-28 09:22:00,
2013-07-28 04:27:00,56.8,50.7,31.01,East,80,0.0,1.0,80,0.00,,---,0.00,VWS V14.00,2013-07-28 09:27:00,
2013-07-28 04:32:00,56.8,50.7,31.01,East,80,0.0,1.0,80,0.00,,---,0.00,VWS V14.00,2013-07-28 09:32:00,
2013-07-28 04:37:00,56.7,50.9,31.01,East,80,0.0,1.0,81,0.00,,---,0.00,VWS V14.00,2013-07-28 09:37:00,
2013-07-28 04:42:00,56.7,50.9,31.01,East,80,0.0,1.0,81,0.00,,---,0.00,VWS V14.00,2013-07-28 09:42:00,
2013-07-28 04:47:00,56.5,50.7,31.01,East,80,0.0,1.0,81,0.00,,---,0.00,VWS V14.00,2013-07-28 09:47:00,
2013-07-28 04:52:00,56.5,50.7,31.01,East,80,0.0,1.0,81,0.00,,---,0.00,VWS V14.00,2013-07-28 09:52:00,
2013-07-28 04:57:00,56.3,50.9,31.01,East,80,0.0,1.0,82,0.00,,---,0.00,VWS V14.00,2013-07-28 09:57:00,
2013-07-28 05:02:00,56.1,50.7,31.01,East,80,0.0,1.0,82,0.00,,---,0.00,VWS V14.00,2013-07-28 10:02:00,
2013-07-28 05:07:00,56.1,50.7,31.01,East,80,0.0,1.0,82,0.00,,---,0.00,VWS V14.00,2013-07-28 10:07:00,
2013-07-28 05:12:00,56.1,50.7,31.01,East,80,0.0,1.0,82,0.00,,---,0.00,VWS V14.00,2013-07-28 10:12:00,
2013-07-28 05:17:00,56.1,51.0,31.01,East,80,0.0,1.0,83,0.00,,---,0.00,VWS V14.00,2013-07-28 10:17:00,
2013-07-28 05:22:00,56.1,51.0,31.01,East,80,0.0,1.0,83,0.00,,---,0.00,VWS V14.00,2013-07-28 10:22:00,
2013-07-28 05:27:00,56.3,51.2,31.01,East,80,0.0,1.0,83,0.00,,---,0.00,VWS V14.00,2013-07-28 10:27:00,
2013-07-28 05:32:00,56.1,51.0,31.01,East,80,0.0,1.0,83,0.00,,---,0.00,VWS V14.00,2013-07-28 10:32:00,
2013-07-28 05:37:00,55.9,50.9,31.01,East,80,0.0,1.0,83,0.00,,---,0.00,VWS V14.00,2013-07-28 10:37:00,
2013-07-28 05:42:00,55.9,51.2,31.01,East,80,0.0,1.0,84,0.00,,---,0.00,VWS V14.00,2013-07-28 10:42:00,
2013-07-28 05:47:00,55.9,51.2,31.01,East,80,0.0,1.0,84,0.00,,---,0.00,VWS V14.00,2013-07-28 10:47:00,
2013-07-28 05:52:00,55.8,51.0,31.01,East,80,0.0,1.0,84,0.00,,---,0.00,VWS V14.00,2013-07-28 10:52:00,
2013-07-28 05:57:00,55.8,51.0,31.01,East,80,0.0,1.0,84,0.00,,---,0.00,VWS V14.00,2013-07-28 10:57:00,
2013-07-28 06:02:00,55.6,50.8,31.01,East,80,0.0,1.0,84,0.00,,---,0.00,VWS V14.00,2013-07-28 11:02:00,
2013-07-28 06:07:00,55.6,50.8,31.01,East,80,0.0,1.0,84,0.00,,---,0.00,VWS V14.00,2013-07-28 11:07:00,
2013-07-28 06:12:00,55.4,50.7,31.01,East,80,0.0,1.0,84,0.00,,---,0.00,VWS V14.00,2013-07-28 11:12:00,
2013-07-28 06:18:00,55.6,51.2,31.01,East,80,0.0,1.0,85,0.00,,---,0.00,VWS V14.00,2013-07-28 11:18:00,
2013-07-28 06:23:00,55.6,51.2,31.01,East,80,0.0,1.0,85,0.00,,---,0.00,VWS V14.00,2013-07-28 11:23:00,
2013-07-28 06:28:00,55.6,51.2,31.01,East,80,0.0,1.0,85,0.00,,---,0.00,VWS V14.00,2013-07-28 11:28:00,
2013-07-28 06:33:00,55.8,51.3,31.01,East,80,0.0,1.0,85,0.00,,---,0.00,VWS V14.00,2013-07-28 11:33:00,
2013-07-28 06:38:00,55.9,51.5,31.01,East,80,0.0,1.0,85,0.00,,---,0.00,VWS V14.00,2013-07-28 11:38:00,
2013-07-28 06:43:00,56.3,52.2,31.01,East,80,0.0,1.0,86,0.00,,---,0.00,VWS V14.00,2013-07-28 11:43:00,
2013-07-28 06:48:00,56.7,52.5,31.01,East,80,0.0,1.0,86,0.00,,---,0.00,VWS V14.00,2013-07-28 11:48:00,
2013-07-28 06:53:00,57.0,52.9,31.01,East,80,0.0,1.0,86,0.00,,---,0.00,VWS V14.00,2013-07-28 11:53:00,
2013-07-28 06:58:00,57.6,53.4,31.01,East,80,0.0,1.0,86,0.00,,---,0.00,VWS V14.00,2013-07-28 11:58:00,
2013-07-28 07:03:00,58.5,54.6,31.01,East,80,0.0,1.0,87,0.00,,---,0.00,VWS V14.00,2013-07-28 12:03:00,
2013-07-28 07:08:00,59.2,55.3,31.01,East,80,0.0,1.0,87,0.00,,---,0.00,VWS V14.00,2013-07-28 12:08:00,
2013-07-28 07:13:00,59.9,56.3,31.01,SE,125,0.0,1.0,88,0.00,,---,0.00,VWS V14.00,2013-07-28 12:13:00,
2013-07-28 07:18:00,60.6,56.7,31.01,SE,135,0.0,1.0,87,0.00,,---,0.00,VWS V14.00,2013-07-28 12:18:00,
2013-07-28 07:23:00,61.2,57.0,31.01,SE,138,0.0,1.0,86,0.00,,---,0.00,VWS V14.00,2013-07-28 12:23:00,
2013-07-28 07:28:00,61.7,57.2,31.01,SE,138,0.0,1.0,85,0.00,,---,0.00,VWS V14.00,2013-07-28 12:28:00,
2013-07-28 07:33:00,61.9,57.0,31.01,SE,128,0.0,1.0,84,0.00,,---,0.00,VWS V14.00,2013-07-28 12:33:00,
2013-07-28 07:38:00,62.2,56.3,31.01,SE,127,0.0,1.0,81,0.00,,---,0.00,VWS V14.00,2013-07-28 12:38:00,
2013-07-28 07:43:00,62.6,55.7,31.01,SSE,151,5.4,7.4,78,0.00,,---,0.00,VWS V14.00,2013-07-28 12:43:00,
2013-07-28 07:48:00,63.0,55.3,31.01,ESE,118,4.7,6.6,76,0.00,,---,0.00,VWS V14.00,2013-07-28 12:48:00,
2013-07-28 07:53:00,63.1,55.1,31.01,SSE,148,6.0,8.2,75,0.00,,---,0.00,VWS V14.00,2013-07-28 12:53:00,
2013-07-28 07:58:00,63.3,54.9,31.01,SE,141,6.0,8.2,74,0.00,,---,0.00,VWS V14.00,2013-07-28 12:58:00,
2013-07-28 08:03:00,63.9,54.3,31.01,SSE,163,8.1,10.7,71,0.00,,---,0.00,VWS V14.00,2013-07-28 13:03:00,
2013-07-28 08:08:00,64.2,53.8,31.01,SE,145,7.4,9.9,69,0.00,,---,0.00,VWS V14.00,2013-07-28 13:08:00,
2013-07-28 08:13:00,64.4,53.6,31.01,ESE,119,0.0,8.2,68,0.00,,---,0.00,VWS V14.00,2013-07-28 13:13:00,
2013-07-28 08:18:00,64.8,54.0,31.01,SE,132,5.4,7.4,68,0.00,,---,0.00,VWS V14.00,2013-07-28 13:18:00,
2013-07-28 08:23:00,65.1,54.3,31.01,South,176,0.0,1.0,68,0.00,,---,0.00,VWS V14.00,2013-07-28 13:23:00,
2013-07-28 08:28:00,65.3,54.1,31.01,SSE,152,7.4,9.9,67,0.00,,---,0.00,VWS V14.00,2013-07-28 13:28:00,
2013-07-28 08:33:00,65.8,53.3,31.01,SSE,157,4.7,7.4,64,0.00,,---,0.00,VWS V14.00,2013-07-28 13:33:00,
2013-07-28 08:38:00,66.2,52.4,31.01,SSE,156,6.0,8.2,61,0.00,,---,0.00,VWS V14.00,2013-07-28 13:38:00,
2013-07-28 08:43:00,66.6,52.3,31.01,SE,144,7.4,9.9,60,0.00,,---,0.00,VWS V14.00,2013-07-28 13:43:00,
2013-07-28 08:48:00,66.9,53.0,31.01,South,170,7.4,9.9,61,0.00,,---,0.00,VWS V14.00,2013-07-28 13:48:00,
2013-07-28 08:53:00,66.9,53.5,31.01,South,184,0.0,1.0,62,0.00,,---,0.00,VWS V14.00,2013-07-28 13:53:00,
2013-07-28 08:58:00,67.1,52.3,31.01,SE,141,4.0,6.6,59,0.00,,---,0.00,VWS V14.00,2013-07-28 13:58:00,
2013-07-28 09:03:00,67.5,53.1,31.01,SSE,148,5.4,7.4,60,0.00,,---,0.00,VWS V14.00,2013-07-28 14:03:00,
2013-07-28 09:08:00,67.8,52.0,31.01,SSE,150,7.4,9.9,57,0.00,,---,0.00,VWS V14.00,2013-07-28 14:08:00,
2013-07-28 09:13:00,68.0,51.2,31.01,SSE,155,4.7,10.7,55,0.00,,---,0.00,VWS V14.00,2013-07-28 14:13:00,
2013-07-28 09:18:00,68.4,51.6,31.01,SSE,155,4.7,6.6,55,0.00,,---,0.00,VWS V14.00,2013-07-28 14:18:00,
2013-07-28 09:23:00,68.7,51.9,31.01,SE,129,6.0,8.2,55,0.00,,---,0.00,VWS V14.00,2013-07-28 14:23:00,
2013-07-28 09:28:00,69.1,51.8,31.01,East,93,4.7,6.6,54,0.00,,---,0.00,VWS V14.00,2013-07-28 14:28:00,
2013-07-28 09:33:00,69.3,51.9,31.01,SE,136,0.0,1.0,54,0.00,,---,0.00,VWS V14.00,2013-07-28 14:33:00,
2013-07-28 09:38:00,69.6,51.2,31.01,SSE,157,6.0,8.2,52,0.00,,---,0.00,VWS V14.00,2013-07-28 14:38:00,
2013-07-28 09:43:00,70.0,50.5,31.01,ESE,102,4.0,5.8,50,0.00,,---,0.00,VWS V14.00,2013-07-28 14:43:00,
2013-07-28 09:48:00,70.2,51.2,31.01,SSE,159,4.0,5.8,51,0.00,,---,0.00,VWS V14.00,2013-07-28 14:48:00,
2013-07-28 09:53:00,70.3,50.3,31.01,SE,142,8.1,10.7,49,0.00,,---,0.00,VWS V14.00,2013-07-28 14:53:00,
2013-07-28 09:58:00,70.5,50.5,31.01,SSE,149,5.4,7.4,49,0.00,,---,0.00,VWS V14.00,2013-07-28 14:58:00,
2013-07-28 10:03:00,70.7,49.5,31.01,East,101,4.0,7.4,47,0.00,,---,0.00,VWS V14.00,2013-07-28 15:03:00,
2013-07-28 10:08:00,70.9,49.7,31.01,East,96,4.7,6.6,47,0.00,,---,0.00,VWS V14.00,2013-07-28 15:08:00,
2013-07-28 10:13:00,71.2,50.6,31.01,East,83,3.4,5.0,48,0.00,,---,0.00,VWS V14.00,2013-07-28 15:13:00,
2013-07-28 10:18:00,71.4,49.0,31.01,SE,136,4.7,6.6,45,0.00,,---,0.00,VWS V14.00,2013-07-28 15:18:00,
2013-07-28 10:23:00,71.6,49.2,31.01,SSE,147,0.0,1.0,45,0.00,,---,0.00,VWS V14.00,2013-07-28 15:23:00,
2013-07-28 10:28:00,71.6,48.6,31.01,SE,132,4.7,6.6,44,0.00,,---,0.00,VWS V14.00,2013-07-28 15:28:00,
2013-07-28 10:33:00,71.8,48.7,31.01,SE,132,4.7,6.6,44,0.00,,---,0.00,VWS V14.00,2013-07-28 15:33:00,
2013-07-28 10:38:00,72.1,49.0,31.01,North,357,9.4,12.3,44,0.00,,---,0.00,VWS V14.00,2013-07-28 15:38:00,
2013-07-28 10:43:00,72.3,49.2,31.01,North,357,9.4,12.3,44,0.00,,---,0.00,VWS V14.00,2013-07-28 15:43:00,
2013-07-28 10:48:00,72.3,48.6,31.01,NNW,340,0.0,1.0,43,0.00,,---,0.00,VWS V14.00,2013-07-28 15:48:00,
2013-07-28 10:53:00,72.1,48.4,31.01,East,84,4.0,5.8,43,0.00,,---,0.00,VWS V14.00,2013-07-28 15:53:00,
2013-07-28 10:58:00,72.3,48.0,31.01,NNW,341,5.4,7.4,42,0.00,,---,0.00,VWS V14.00,2013-07-28 15:58:00,
2013-07-28 11:03:00,72.3,48.0,31.01,WNW,300,0.0,1.0,42,0.00,,---,0.00,VWS V14.00,2013-07-28 16:03:00,
2013-07-28 11:08:00,72.3,48.0,31.01,NNW,327,4.7,6.6,42,0.00,,---,0.00,VWS V14.00,2013-07-28 16:08:00,
2013-07-28 11:13:00,72.3,48.6,31.01,NW,315,4.0,5.8,43,0.00,,---,0.00,VWS V14.00,2013-07-28 16:13:00,
2013-07-28 11:18:00,72.7,49.5,31.01,NNW,331,0.0,1.0,44,0.00,,---,0.00,VWS V14.00,2013-07-28 16:18:00,
2013-07-28 11:23:00,72.3,47.3,31.01,NW,322,4.7,6.6,41,0.00,,---,0.00,VWS V14.00,2013-07-28 16:23:00,
2013-07-28 11:28:00,72.1,47.2,31.01,WSW,251,6.0,8.2,41,0.00,,---,0.00,VWS V14.00,2013-07-28 16:28:00,
2013-07-28 11:33:00,72.3,48.6,31.01,NNW,330,0.0,1.0,43,0.00,,---,0.00,VWS V14.00,2013-07-28 16:33:00,
2013-07-28 11:38:00,72.3,48.0,31.01,WSW,248,4.7,6.6,42,0.00,,---,0.00,VWS V14.00,2013-07-28 16:38:00,
2013-07-28 11:43:00,72.3,48.0,31.01,North,10,6.0,9.9,42,0.00,,---,0.00,VWS V14.00,2013-07-28 16:43:00,
2013-07-28 11:48:00,72.5,48.1,31.01,NW,321,6.0,8.2,42,0.00,,---,0.00,VWS V14.00,2013-07-28 16:48:00,
2013-07-28 11:53:00,72.7,48.3,31.01,North,353,0.0,1.0,42,0.00,,---,0.00,VWS V14.00,2013-07-28 16:53:00,
2013-07-28 11:58:00,72.9,49.1,31.01,North,353,6.0,8.2,43,0.00,,---,0.00,VWS V14.00,2013-07-28 16:58:00,
2013-07-28 12:03:00,72.7,48.9,31.01,NW,325,5.4,7.4,43,0.00,,---,0.00,VWS V14.00,2013-07-28 17:03:00,
2013-07-28 12:08:00,73.0,49.2,31.01,West,276,0.0,1.0,43,0.00,,---,0.00,VWS V14.00,2013-07-28 17:08:00,
2013-07-28 12:13:00,73.2,49.4,31.01,NNW,341,4.0,5.8,43,0.00,,---,0.00,VWS V14.00,2013-07-28 17:13:00,
2013-07-28 12:18:00,73.4,49.6,31.01,NNE,19,13.1,16.7,43,0.00,,---,0.00,VWS V14.00,2013-07-28 17:18:00,
2013-07-28 12:23:00,73.4,48.3,31.01,WNW,299,8.1,10.7,41,0.00,,---,0.00,VWS V14.00,2013-07-28 17:23:00,
2013-07-28 12:28:00,73.4,48.3,31.01,NNE,27,8.1,10.7,41,0.00,,---,0.00,VWS V14.00,2013-07-28 17:28:00,
2013-07-28 12:33:00,73.6,47.8,31.01,WNW,284,4.7,6.6,40,0.00,,---,0.00,VWS V14.00,2013-07-28 17:33:00,
2013-07-28 12:38:00,73.6,47.8,31.01,NW,321,4.0,5.8,40,0.00,,---,0.00,VWS V14.00,2013-07-28 17:38:00,
2013-07-28 12:43:00,73.6,47.1,31.01,West,265,0.0,1.0,39,0.00,,---,0.00,VWS V14.00,2013-07-28 17:43:00,
2013-07-28 12:48:00,73.9,48.1,31.01,SW,224,3.4,5.0,40,0.00,,---,0.00,VWS V14.00,2013-07-28 17:48:00,
2013-07-28 12:53:00,73.9,47.5,31.01,NNE,22,0.0,1.0,39,0.00,,---,0.00,VWS V14.00,2013-07-28 17:53:00,
2013-07-28 12:58:00,74.1,47.6,31.01,WNW,284,5.4,7.4,39,0.00,,---,0.00,VWS V14.00,2013-07-28 17:58:00,
2013-07-28 13:03:00,74.3,47.1,31.01,North,2,4.7,6.6,38,0.00,,---,0.00,VWS V14.00,2013-07-28 18:03:00,
2013-07-28 13:08:00,75.0,48.4,31.01,NNW,340,4.0,8.2,39,0.00,,---,0.00,VWS V14.00,2013-07-28 18:08:00,
2013-07-28 13:13:00,75.0,47.7,31.01,NNW,340,4.0,5.8,38,0.00,,---,0.00,VWS V14.00,2013-07-28 18:13:00,
2013-07-28 13:18:00,75.0,48.4,31.01,WNW,283,0.0,1.0,39,0.00,,---,0.00,VWS V14.00,2013-07-28 18:18:00,
2013-07-28 13:23:00,74.8,46.8,31.01,West,268,0.0,1.0,37,0.00,,---,0.00,VWS V14.00,2013-07-28 18:23:00,
2013-07-28 13:28:00,75.2,47.2,31.01,SW,222,4.7,6.6,37,0.00,,---,0.00,VWS V14.00,2013-07-28 18:28:00,
2013-07-28 13:33:00,75.6,48.2,31.01,West,275,4.7,6.6,38,0.00,,---,0.00,VWS V14.00,2013-07-28 18:33:00,
2013-07-28 13:38:00,75.6,47.5,31.01,WNW,293,3.4,6.6,37,0.00,,---,0.00,VWS V14.00,2013-07-28 18:38:00,
2013-07-28 13:43:00,75.4,46.6,31.01,South,173,3.4,5.0,36,0.00,,---,0.00,VWS V14.00,2013-07-28 18:43:00,
2013-07-28 13:48:00,76.1,48.0,31.01,SSE,166,3.4,5.0,37,0.00,,---,0.00,VWS V14.00,2013-07-28 18:48:00,
2013-07-28 13:53:00,76.5,48.3,31.01,SSE,166,0.0,1.0,37,0.00,,---,0.00,VWS V14.00,2013-07-28 18:53:00,
2013-07-28 13:58:00,76.5,48.3,31.01,WNW,286,3.4,5.0,37,0.00,,---,0.00,VWS V14.00,2013-07-28 18:58:00,
2013-07-28 14:03:00,75.9,47.8,31.01,WSW,240,4.0,5.8,37,0.00,,---,0.00,VWS V14.00,2013-07-28 19:03:00,
2013-07-28 14:08:00,75.6,47.5,31.01,SSW,195,0.0,1.0,37,0.00,,---,0.00,VWS V14.00,2013-07-28 19:08:00,
2013-07-28 14:13:00,75.0,46.3,31.01,WNW,299,0.0,1.0,36,0.00,,---,0.00,VWS V14.00,2013-07-28 19:13:00,
2013-07-28 14:18:00,74.7,46.7,31.01,North,4,5.4,7.4,37,0.00,,---,0.00,VWS V14.00,2013-07-28 19:18:00,
2013-07-28 14:23:00,74.5,47.2,31.01,NNW,336,4.0,5.8,38,0.00,,---,0.00,VWS V14.00,2013-07-28 19:23:00,
2013-07-28 14:28:00,74.5,47.9,31.01,NNW,331,0.0,1.0,39,0.00,,---,0.00,VWS V14.00,2013-07-28 19:28:00,
2013-07-28 14:33:00,74.1,48.9,31.01,NNW,331,0.0,1.0,41,0.00,,---,0.00,VWS V14.00,2013-07-28 19:33:00,
2013-07-28 14:38:00,74.3,49.1,31.01,NNW,342,4.7,6.6,41,0.00,,---,0.00,VWS V14.00,2013-07-28 19:38:00,
2013-07-28 14:43:00,74.3,50.4,31.01,NNW,341,4.0,5.8,43,0.00,,---,0.00,VWS V14.00,2013-07-28 19:43:00,
2013-07-28 14:48:00,74.5,49.9,31.01,NW,319,0.0,1.0,42,0.00,,---,0.00,VWS V14.00,2013-07-28 19:48:00,
2013-07-28 14:53:00,74.8,50.2,31.01,North,353,0.0,1.0,42,0.00,,---,0.00,VWS V14.00,2013-07-28 19:53:00,
2013-07-28 14:58:00,74.8,50.2,31.01,WNW,283,0.0,1.0,42,0.00,,---,0.00,VWS V14.00,2013-07-28 19:58:00,
2013-07-28 15:03:00,74.8,50.2,31.01,South,169,0.0,1.0,42,0.00,,---,0.00,VWS V14.00,2013-07-28 20:03:00,
2013-07-28 15:08:00,74.8,49.6,31.01,North,350,4.7,6.6,41,0.00,,---,0.00,VWS V14.00,2013-07-28 20:08:00,
2013-07-28 15:13:00,74.7,48.8,31.01,WNW,285,4.7,6.6,40,0.00,,---,0.00,VWS V14.00,2013-07-28 20:13:00,
2013-07-28 15:18:00,74.7,49.4,31.01,NNW,329,0.0,1.0,41,0.00,,---,0.00,VWS V14.00,2013-07-28 20:18:00,
2013-07-28 15:23:00,74.8,49.6,31.01,NW,312,0.0,1.0,41,0.00,,---,0.00,VWS V14.00,2013-07-28 20:23:00,
2013-07-28 15:28:00,74.8,49.6,31.01,NNW,333,0.0,1.0,41,0.00,,---,0.00,VWS V14.00,2013-07-28 20:28:00,
2013-07-28 15:33:00,74.8,50.2,31.01,West,276,0.0,1.0,42,0.00,,---,0.00,VWS V14.00,2013-07-28 20:33:00,
2013-07-28 15:38:00,75.0,50.4,31.01,WSW,253,0.0,1.0,42,0.00,,---,0.00,VWS V14.00,2013-07-28 20:38:00,
2013-07-28 15:43:00,75.6,50.9,31.01,North,0,6.0,8.2,42,0.00,,---,0.00,VWS V14.00,2013-07-28 20:43:00,
2013-07-28 15:48:00,75.4,50.1,31.01,WNW,283,0.0,1.0,41,0.00,,---,0.00,VWS V14.00,2013-07-28 20:48:00,
2013-07-28 15:53:00,75.6,50.2,31.01,SW,235,0.0,1.0,41,0.00,,---,0.00,VWS V14.00,2013-07-28 20:53:00,
2013-07-28 15:58:00,75.6,51.5,31.01,SW,230,0.0,1.0,43,0.00,,---,0.00,VWS V14.00,2013-07-28 20:58:00,
2013-07-28 16:03:00,75.0,51.0,31.01,South,173,0.0,1.0,43,0.00,,---,0.00,VWS V14.00,2013-07-28 21:03:00,
2013-07-28 16:08:00,75.0,51.0,31.01,SSE,152,0.0,1.0,43,0.00,,---,0.00,VWS V14.00,2013-07-28 21:08:00,
2013-07-28 16:13:00,74.3,51.6,31.01,SE,146,0.0,1.0,45,0.00,,---,0.00,VWS V14.00,2013-07-28 21:13:00,
2013-07-28 16:18:00,74.7,51.9,31.01,South,175,0.0,1.0,45,0.00,,---,0.00,VWS V14.00,2013-07-28 21:18:00,
2013-07-28 16:23:00,74.7,51.9,31.01,WSW,245,0.0,1.0,45,0.00,,---,0.00,VWS V14.00,2013-07-28 21:23:00,
2013-07-28 16:28:00,75.6,52.8,31.01,West,274,0.0,1.0,45,0.00,,---,0.00,VWS V14.00,2013-07-28 21:28:00,
2013-07-28 16:33:00,75.6,52.1,31.01,WNW,294,0.0,1.0,44,0.00,,---,0.00,VWS V14.00,2013-07-28 21:33:00,
2013-07-28 16:38:00,75.6,52.1,31.01,West,263,0.0,1.0,44,0.00,,---,0.00,VWS V14.00,2013-07-28 21:38:00,
2013-07-28 16:43:00,75.4,52.6,31.01,SW,231,0.0,1.0,45,0.00,,---,0.00,VWS V14.00,2013-07-28 21:43:00,
2013-07-28 16:48:00,75.2,52.4,31.01,West,259,0.0,1.0,45,0.00,,---,0.00,VWS V14.00,2013-07-28 21:48:00,
2013-07-28 16:53:00,74.3,51.6,31.01,WSW,255,0.0,1.0,45,0.00,,---,0.00,VWS V14.00,2013-07-28 21:53:00,
2013-07-28 16:58:00,73.6,51.5,31.01,WSW,256,0.0,1.0,46,0.00,,---,0.00,VWS V14.00,2013-07-28 21:58:00,
2013-07-28 17:03:00,73.2,51.8,31.01,West,272,0.0,1.0,47,0.00,,---,0.00,VWS V14.00,2013-07-28 22:03:00,
2013-07-28 17:08:00,73.4,52.5,31.01,SSW,204,0.0,1.0,48,0.00,,---,0.00,VWS V14.00,2013-07-28 22:08:00,
2013-07-28 17:13:00,74.3,53.9,31.01,NW,315,0.0,1.0,49,0.00,,---,0.00,VWS V14.00,2013-07-28 22:13:00,
2013-07-28 17:18:00,74.5,53.5,31.01,SSW,205,0.0,1.0,48,0.00,,---,0.00,VWS V14.00,2013-07-28 22:18:00,
2013-07-28 17:23:00,74.3,52.8,31.01,WSW,257,0.0,1.0,47,0.00,,---,0.00,VWS V14.00,2013-07-28 22:23:00,
2013-07-28 17:28:00,73.9,52.5,31.01,WSW,250,0.0,1.0,47,0.00,,---,0.00,VWS V14.00,2013-07-28 22:28:00,
2013-07-28 17:33:00,73.0,52.8,31.01,West,280,0.0,1.0,49,0.00,,---,0.00,VWS V14.00,2013-07-28 22:33:00,
2013-07-28 17:38:00,72.5,52.8,31.01,SW,236,0.0,1.0,50,0.00,,---,0.00,VWS V14.00,2013-07-28 22:38:00,
2013-07-28 17:43:00,72.0,53.4,31.01,WSW,254,0.0,1.0,52,0.00,,---,0.00,VWS V14.00,2013-07-28 22:43:00,
2013-07-28 17:48:00,71.6,53.6,31.01,WSW,254,0.0,1.0,53,0.00,,---,0.00,VWS V14.00,2013-07-28 22:48:00,
2013-07-28 17:53:00,71.6,53.6,31.01,WSW,254,0.0,1.0,53,0.00,,---,0.00,VWS V14.00,2013-07-28 22:53:00,
2013-07-28 17:58:00,71.2,53.8,31.01,WSW,254,0.0,1.0,54,0.00,,---,0.00,VWS V14.00,2013-07-28 22:58:00,
2013-07-28 18:03:00,71.1,54.1,31.01,WSW,255,0.0,1.0,55,0.00,,---,0.00,VWS V14.00,2013-07-28 23:03:00,
2013-07-28 18:08:00,70.9,54.4,31.01,WSW,254,0.0,1.0,56,0.00,,---,0.00,VWS V14.00,2013-07-28 23:08:00,
2013-07-28 18:13:00,70.5,55.0,31.01,WSW,255,0.0,1.0,58,0.00,,---,0.00,VWS V14.00,2013-07-28 23:13:00,
2013-07-28 18:18:00,70.5,55.0,31.01,WSW,255,0.0,1.0,58,0.00,,---,0.00,VWS V14.00,2013-07-28 23:18:00,
2013-07-28 18:23:00,70.3,55.8,31.01,WSW,254,0.0,1.0,60,0.00,,---,0.00,VWS V14.00,2013-07-28 23:23:00,
2013-07-28 18:28:00,70.2,55.6,31.01,WSW,255,0.0,1.0,60,0.00,,---,0.00,VWS V14.00,2013-07-28 23:28:00,
2013-07-28 18:33:00,70.2,55.6,31.01,WSW,255,0.0,1.0,60,0.00,,---,0.00,VWS V14.00,2013-07-28 23:33:00,
2013-07-28 18:38:00,70.0,55.9,31.01,WSW,254,0.0,1.0,61,0.00,,---,0.00,VWS V14.00,2013-07-28 23:38:00,
2013-07-28 18:43:00,70.0,56.4,31.01,WSW,254,0.0,1.0,62,0.00,,---,0.00,VWS V14.00,2013-07-28 23:43:00,
2013-07-28 18:48:00,70.0,56.4,31.01,WSW,254,0.0,1.0,62,0.00,,---,0.00,VWS V14.00,2013-07-28 23:48:00,
2013-07-28 18:53:00,70.0,56.4,31.01,WSW,254,0.0,1.0,62,0.00,,---,0.00,VWS V14.00,2013-07-28 23:53:00,
2013-07-28 18:58:00,69.8,56.7,31.01,WSW,254,0.0,1.0,63,0.00,,---,0.00,VWS V14.00,2013-07-28 23:58:00,
2013-07-28 19:03:00,69.6,56.9,31.01,WSW,254,0.0,1.0,64,0.00,,---,0.00,VWS V14.00,2013-07-29 00:03:00,
2013-07-28 19:08:00,69.6,56.9,31.01,WSW,254,0.0,1.0,64,0.00,,---,0.00,VWS V14.00,2013-07-29 00:08:00,
2013-07-28 19:13:00,69.4,57.2,31.01,WSW,254,0.0,1.0,65,0.00,,---,0.00,VWS V14.00,2013-07-29 00:13:00,
2013-07-28 19:18:00,69.3,57.0,31.01,WSW,254,0.0,1.0,65,0.00,,---,0.00,VWS V14.00,2013-07-29 00:18:00,
2013-07-28 19:23:00,69.3,57.0,31.01,WSW,254,0.0,1.0,65,0.00,,---,0.00,VWS V14.00,2013-07-29 00:23:00,
2013-07-28 19:28:00,68.9,56.7,31.01,WSW,254,0.0,1.0,65,0.00,,---,0.00,VWS V14.00,2013-07-29 00:28:00,
2013-07-28 19:33:00,68.7,56.5,31.01,WSW,254,0.0,1.0,65,0.00,,---,0.00,VWS V14.00,2013-07-29 00:33:00,
2013-07-28 19:38:00,68.4,56.6,31.01,WSW,254,0.0,1.0,66,0.00,,---,0.00,VWS V14.00,2013-07-29 00:38:00,
2013-07-28 19:43:00,68.2,56.4,31.01,WSW,254,0.0,1.0,66,0.00,,---,0.00,VWS V14.00,2013-07-29 00:43:00,
2013-07-28 19:48:00,68.0,56.7,31.01,WSW,254,0.0,1.0,67,0.00,,---,0.00,VWS V14.00,2013-07-29 00:48:00,
2013-07-28 19:53:00,67.8,56.9,31.01,WSW,254,0.0,1.0,68,0.00,,---,0.00,VWS V14.00,2013-07-29 00:53:00,
2013-07-28 19:58:00,67.6,56.7,31.01,WSW,254,0.0,1.0,68,0.00,,---,0.00,VWS V14.00,2013-07-29 00:58:00,
2013-07-28 20:03:00,67.6,57.1,31.01,WSW,254,0.0,1.0,69,0.00,,---,0.00,VWS V14.00,2013-07-29 01:03:00,
2013-07-28 20:08:00,67.3,56.8,31.01,WSW,254,0.0,1.0,69,0.00,,---,0.00,VWS V14.00,2013-07-29 01:08:00,
2013-07-28 20:13:00,67.1,57.0,31.01,WSW,255,0.0,1.0,70,0.00,,---,0.00,VWS V14.00,2013-07-29 01:13:00,
2013-07-28 20:19:00,67.1,57.0,31.01,WSW,254,0.0,1.0,70,0.00,,---,0.00,VWS V14.00,2013-07-29 01:19:00,
2013-07-28 20:24:00,66.9,57.2,31.01,WSW,254,0.0,1.0,71,0.00,,---,0.00,VWS V14.00,2013-07-29 01:24:00,
2013-07-28 20:29:00,66.6,56.9,31.01,WSW,254,0.0,1.0,71,0.00,,---,0.00,VWS V14.00,2013-07-29 01:29:00,
2013-07-28 20:34:00,66.6,57.3,31.01,WSW,254,0.0,1.0,72,0.00,,---,0.00,VWS V14.00,2013-07-29 01:34:00,
2013-07-28 20:39:00,66.6,57.3,31.01,WSW,254,0.0,1.0,72,0.00,,---,0.00,VWS V14.00,2013-07-29 01:39:00,
2013-07-28 20:44:00,66.2,56.9,31.01,WSW,254,0.0,1.0,72,0.00,,---,0.00,VWS V14.00,2013-07-29 01:44:00,
2013-07-28 20:49:00,66.0,57.1,31.01,WSW,254,0.0,1.0,73,0.00,,---,0.00,VWS V14.00,2013-07-29 01:49:00,
2013-07-28 20:54:00,66.0,57.1,31.01,WSW,254,0.0,1.0,73,0.00,,---,0.00,VWS V14.00,2013-07-29 01:54:00,
2013-07-28 20:59:00,65.8,57.3,31.01,WSW,254,0.0,1.0,74,0.00,,---,0.00,VWS V14.00,2013-07-29 01:59:00,
2013-07-28 21:04:00,65.7,57.2,31.01,WSW,254,0.0,1.0,74,0.00,,---,0.00,VWS V14.00,2013-07-29 02:04:00,
2013-07-28 21:09:00,65.5,57.0,31.01,WSW,254,0.0,1.0,74,0.00,,---,0.00,VWS V14.00,2013-07-29 02:09:00,
2013-07-28 21:14:00,65.3,56.8,31.01,WSW,254,0.0,1.0,74,0.00,,---,0.00,VWS V14.00,2013-07-29 02:14:00,
2013-07-28 21:19:00,65.1,56.6,31.01,WSW,254,0.0,1.0,74,0.00,,---,0.00,VWS V14.00,2013-07-29 02:19:00,
2013-07-28 21:24:00,64.9,56.8,31.01,WSW,254,0.0,1.0,75,0.00,,---,0.00,VWS V14.00,2013-07-29 02:24:00,
2013-07-28 21:29:00,64.9,56.8,31.01,WSW,254,0.0,1.0,75,0.00,,---,0.00,VWS V14.00,2013-07-29 02:29:00,
2013-07-28 21:34:00,64.8,56.7,31.01,WSW,254,0.0,1.0,75,0.00,,---,0.00,VWS V14.00,2013-07-29 02:34:00,
2013-07-28 21:39:00,64.6,56.8,31.01,WSW,255,0.0,1.0,76,0.00,,---,0.00,VWS V14.00,2013-07-29 02:39:00,
2013-07-28 21:44:00,64.6,56.8,31.01,WSW,254,0.0,1.0,76,0.00,,---,0.00,VWS V14.00,2013-07-29 02:44:00,
2013-07-28 21:49:00,64.4,57.0,31.01,WSW,254,0.0,1.0,77,0.00,,---,0.00,VWS V14.00,2013-07-29 02:49:00,
2013-07-28 21:54:00,64.2,57.2,31.01,WSW,254,0.0,1.0,78,0.00,,---,0.00,VWS V14.00,2013-07-29 02:54:00,
2013-07-28 21:59:00,64.4,57.4,31.01,WSW,254,0.0,1.0,78,0.00,,---,0.00,VWS V14.00,2013-07-29 02:59:00,
2013-07-28 22:04:00,64.2,57.2,31.01,WSW,254,0.0,1.0,78,0.00,,---,0.00,VWS V14.00,2013-07-29 03:04:00,
2013-07-28 22:09:00,64.0,57.4,31.01,WSW,255,0.0,1.0,79,0.00,,---,0.00,VWS V14.00,2013-07-29 03:09:00,
2013-07-28 22:14:00,64.0,57.4,31.01,WSW,254,0.0,1.0,79,0.00,,---,0.00,VWS V14.00,2013-07-29 03:14:00,
2013-07-28 22:19:00,63.7,57.0,31.01,WSW,254,0.0,1.0,79,0.00,,---,0.00,VWS V14.00,2013-07-29 03:19:00,
2013-07-28 22:24:00,63.7,57.4,31.01,WSW,254,0.0,1.0,80,0.00,,---,0.00,VWS V14.00,2013-07-29 03:24:00,
2013-07-28 22:29:00,63.7,57.4,31.01,WSW,254,0.0,1.0,80,0.00,,---,0.00,VWS V14.00,2013-07-29 03:29:00,
2013-07-28 22:34:00,63.5,57.2,31.01,WSW,254,0.0,1.0,80,0.00,,---,0.00,VWS V14.00,2013-07-29 03:34:00,
2013-07-28 22:39:00,63.5,57.2,31.01,WSW,254,0.0,1.0,80,0.00,,---,0.00,VWS V14.00,2013-07-29 03:39:00,
2013-07-28 22:44:00,63.3,57.4,31.01,WSW,254,0.0,1.0,81,0.00,,---,0.00,VWS V14.00,2013-07-29 03:44:00,
2013-07-28 22:49:00,63.3,57.4,31.01,WSW,254,0.0,1.0,81,0.00,,---,0.00,VWS V14.00,2013-07-29 03:49:00,
2013-07-28 22:55:00,63.3,57.7,31.01,WSW,254,0.0,1.0,82,0.00,,---,0.00,VWS V14.00,2013-07-29 03:55:00,
2013-07-28 23:00:00,63.1,57.6,31.01,WSW,254,0.0,1.0,82,0.00,,---,0.00,VWS V14.00,2013-07-29 04:00:00,
2013-07-28 23:01:00,63.1,57.6,31.01,WSW,254,0.0,1.0,82,0.00,,---,0.00,VWS V14.00,2013-07-29 04:01:00,
2013-07-28 23:02:00,63.0,57.4,31.01,WSW,254,0.0,1.0,82,0.00,,---,0.00,VWS V14.00,2013-07-29 04:02:00,
2013-07-28 23:07:00,63.0,57.4,31.01,WSW,254,0.0,1.0,82,0.00,,---,0.00,VWS V14.00,2013-07-29 04:07:00,
2013-07-28 23:12:00,62.8,57.2,31.01,WSW,254,0.0,1.0,82,0.00,,---,0.00,VWS V14.00,2013-07-29 04:12:00,
2013-07-28 23:17:00,62.6,57.0,31.01,WSW,254,0.0,1.0,82,0.00,,---,0.00,VWS V14.00,2013-07-29 04:17:00,
2013-07-28 23:22:00,62.6,57.0,31.01,WSW,254,0.0,1.0,82,0.00,,---,0.00,VWS V14.00,2013-07-29 04:22:00,
2013-07-28 23:27:00,62.4,57.2,31.01,WSW,254,0.0,1.0,83,0.00,,---,0.00,VWS V14.00,2013-07-29 04:27:00,
2013-07-28 23:32:00,62.4,57.2,31.01,WSW,254,0.0,1.0,83,0.00,,---,0.00,VWS V14.00,2013-07-29 04:32:00,
2013-07-28 23:37:00,62.2,57.0,31.01,WSW,254,0.0,1.0,83,0.00,,---,0.00,VWS V14.00,2013-07-29 04:37:00,
2013-07-28 23:42:00,62.1,56.8,31.01,WSW,254,0.0,1.0,83,0.00,,---,0.00,VWS V14.00,2013-07-29 04:42:00,
2013-07-28 23:47:00,61.9,56.7,31.01,WSW,254,0.0,1.0,83,0.00,,---,0.00,VWS V14.00,2013-07-29 04:47:00,
2013-07-28 23:52:00,61.9,56.7,31.01,WSW,254,0.0,1.0,83,0.00,,---,0.00,VWS V14.00,2013-07-29 04:52:00,
2013-07-28 23:57:00,61.7,56.5,31.01,WSW,254,0.0,1.0,83,0.00,,---,0.00,VWS V14.00,2013-07-29 04:57:00,